Terminal Aerodrome Forecast
Issued by NWS Portland, OR

Home | Current Version | Previous Version | Text Only | Print | Product List | Glossary On
Versions: 1 2 3 4 5 6 7 8 9 10 11 12 13 14 15 16 17 18 19 20 21 22 23 24 25 26 27 28 29 30 31 32
900
FTUS46 KPQR 042326
TAFSLE
TAF
KSLE 042326Z 0500/0524 36007KT P6SM VCSH BKN025 BKN080
     FM050200 29007KT P6SM VCSH SCT025 BKN080
      TEMPO 0502/0504 BKN025
     FM050600 32005KT P6SM VCSH BKN035 OVC060
     FM051000 32005KT P6SM VCSH BKN025 OVC035
     FM051900 34010KT P6SM VCSH SCT030 BKN040=

USA.gov is the U.S. government's official web portal to all federal, state and local government web resources and services.